SWA1524 KCHS-KDAL
Flight info
| Callsign | SWA1524 |
|---|---|
| Flight time | N/A |
| Altitude | 32000 |
| Route | N0464F320 STUNO1 IRQ DCT GQO DCT MEM DCT FSM DCT CAMAL CRIKT1 |
| Aircraft | B738/M-SDE2E3FGHIRWXY/LB1 |
Departure
| Time | 2026-04-30 22:44 |
|---|---|
| Airport | Charleston International Airport (KCHS) |
Arrival
| Time | N/A |
|---|---|
| Airport | Dallas Love Field (KDAL) |
| Time | Latitude | Longitude | Altitude | Speed | Heading |
|---|---|---|---|---|---|
| 2026-04-30 22:12 | 32.88551 | -80.03631 | 54 ft | 0 kts | 128° |
| 2026-04-30 22:27 | 32.88558 | -80.03642 | 54 ft | 2 kts | 123° |
| 2026-04-30 22:27 | 32.88566 | -80.03662 | 54 ft | 3 kts | 107° |
| 2026-04-30 22:27 | 32.88569 | -80.03701 | 54 ft | 0 kts | 81° |
| 2026-04-30 22:32 | 32.88601 | -80.03671 | 54 ft | 10 kts | 8° |
| 2026-04-30 22:32 | 32.88752 | -80.03643 | 54 ft | 16 kts | 9° |
| 2026-04-30 22:33 | 32.89043 | -80.03592 | 54 ft | 7 kts | 3° |
| 2026-04-30 22:33 | 32.89234 | -80.03584 | 54 ft | 16 kts | 2° |
| 2026-04-30 22:34 | 32.89524 | -80.03586 | 54 ft | 8 kts | 0° |
| 2026-04-30 22:35 | 32.89664 | -80.03569 | 54 ft | 14 kts | 338° |
| 2026-04-30 22:36 | 32.90061 | -80.03566 | 54 ft | 14 kts | 11° |
| 2026-04-30 22:36 | 32.90153 | -80.03526 | 54 ft | 11 kts | 4° |
| 2026-04-30 22:37 | 32.90292 | -80.03728 | 54 ft | 11 kts | 319° |
| 2026-04-30 22:37 | 32.90358 | -80.03794 | 54 ft | 17 kts | 320° |
| 2026-04-30 22:37 | 32.90585 | -80.04028 | 54 ft | 18 kts | 317° |
| 2026-04-30 22:38 | 32.90731 | -80.04186 | 54 ft | 17 kts | 317° |
| 2026-04-30 22:38 | 32.90826 | -80.04346 | 54 ft | 15 kts | 274° |
| 2026-04-30 22:39 | 32.90820 | -80.04463 | 54 ft | 11 kts | 244° |
| 2026-04-30 22:39 | 32.90713 | -80.04664 | 54 ft | 8 kts | 298° |
| 2026-04-30 22:40 | 32.90945 | -80.04849 | 54 ft | 18 kts | 328° |
| 2026-04-30 22:41 | 32.91135 | -80.04981 | 54 ft | 10 kts | 348° |
| 2026-04-30 22:41 | 32.91242 | -80.04892 | 54 ft | 9 kts | 58° |
| 2026-04-30 22:42 | 32.91277 | -80.04796 | 54 ft | 0 kts | 129° |
| 2026-04-30 22:43 | 32.91219 | -80.04745 | 54 ft | 35 kts | 149° |
| 2026-04-30 22:43 | 32.90117 | -80.03914 | 55 ft | 147 kts | 147° |
| 2026-04-30 22:44 | 32.88179 | -80.02496 | 1074 ft | 173 kts | 148° |
| 2026-04-30 22:45 | 32.83787 | -80.05210 | 2929 ft | 244 kts | 263° |
| 2026-04-30 22:45 | 32.84535 | -80.09043 | 4718 ft | 242 kts | 295° |
| 2026-04-30 22:46 | 32.85504 | -80.12856 | 6381 ft | 247 kts | 283° |
| 2026-04-30 22:47 | 32.87500 | -80.20833 | 9568 ft | 257 kts | 284° |
| 2026-04-30 22:47 | 32.88591 | -80.24935 | 11020 ft | 266 kts | 291° |
| 2026-04-30 22:48 | 32.90137 | -80.29202 | 11789 ft | 297 kts | 291° |
| 2026-04-30 22:49 | 32.92741 | -80.36478 | 12851 ft | 336 kts | 291° |
| 2026-04-30 22:49 | 32.95486 | -80.44175 | 14923 ft | 338 kts | 290° |
| 2026-04-30 22:50 | 32.99213 | -80.54547 | 17304 ft | 344 kts | 290° |
| 2026-04-30 22:51 | 33.01096 | -80.59818 | 18427 ft | 346 kts | 289° |
| 2026-04-30 22:51 | 33.02978 | -80.65117 | 19489 ft | 348 kts | 289° |
| 2026-04-30 22:52 | 33.03921 | -80.67776 | 20001 ft | 349 kts | 289° |
| 2026-04-30 22:52 | 33.05813 | -80.73128 | 20927 ft | 352 kts | 290° |
| 2026-04-30 22:53 | 33.07719 | -80.78515 | 21805 ft | 354 kts | 290° |
| 2026-04-30 22:53 | 33.09638 | -80.83944 | 22626 ft | 356 kts | 290° |
| 2026-04-30 22:53 | 33.10601 | -80.86668 | 23014 ft | 357 kts | 290° |
| 2026-04-30 22:54 | 33.12529 | -80.92140 | 23785 ft | 358 kts | 290° |
| 2026-04-30 22:55 | 33.15430 | -81.00403 | 24719 ft | 363 kts | 290° |
| 2026-04-30 22:55 | 33.17390 | -81.05998 | 25275 ft | 366 kts | 290° |
| 2026-04-30 22:56 | 33.19346 | -81.11594 | 25855 ft | 369 kts | 290° |
| 2026-04-30 22:56 | 33.22328 | -81.20140 | 26581 ft | 374 kts | 290° |
| 2026-04-30 22:57 | 33.24367 | -81.25892 | 27040 ft | 377 kts | 290° |
| 2026-04-30 22:57 | 33.26407 | -81.31690 | 27535 ft | 379 kts | 290° |
| 2026-04-30 22:58 | 33.28445 | -81.37524 | 27961 ft | 382 kts | 290° |
| 2026-04-30 22:59 | 33.31490 | -81.46274 | 28877 ft | 379 kts | 290° |
| 2026-04-30 22:59 | 33.34541 | -81.54986 | 29778 ft | 377 kts | 290° |